createdAt,value
2023-05-24T00:01:35.581Z,9.80
2023-05-24T00:05:32.887Z,10.80
2023-05-24T00:09:32.449Z,8.70
2023-05-24T00:13:30.433Z,7.20
2023-05-24T00:17:30.704Z,6.50
2023-05-24T00:21:27.985Z,7.60
2023-05-24T00:25:26.558Z,8.80
2023-05-24T00:29:24.298Z,9.30
2023-05-24T00:33:23.444Z,10.90
2023-05-24T00:37:19.945Z,11.60
2023-05-24T00:41:19.612Z,9.00
2023-05-24T00:44:35.487Z,9.20
2023-05-24T00:47:23.673Z,12.90
2023-05-24T00:50:12.649Z,12.00
2023-05-24T00:53:02.532Z,13.30
2023-05-24T00:55:50.415Z,13.30
2023-05-24T00:58:38.155Z,21.00
2023-05-24T01:01:30.482Z,9.80
2023-05-24T01:04:19.969Z,10.90
2023-05-24T01:07:26.198Z,9.20
2023-05-24T01:10:31.864Z,8.60
2023-05-24T01:13:36.317Z,8.80
2023-05-24T01:16:26.324Z,9.90
2023-05-24T01:19:36.886Z,10.90
2023-05-24T01:22:50.204Z,8.90
2023-05-24T01:28:34.763Z,8.90
2023-05-24T01:31:22.456Z,9.90
2023-05-24T01:34:11.383Z,11.10
2023-05-24T01:36:59.985Z,9.40
2023-05-24T01:39:48.032Z,11.60
2023-05-24T01:42:45.695Z,12.60
2023-05-24T01:45:37.747Z,10.70
2023-05-24T01:48:44.439Z,9.70
2023-05-24T01:51:40.053Z,10.80
2023-05-24T01:54:30.241Z,11.70
2023-05-24T01:57:18.914Z,9.70
2023-05-24T02:00:09.231Z,13.30
2023-05-24T02:03:01.863Z,11.50
2023-05-24T02:05:49.956Z,11.60
2023-05-24T02:08:37.965Z,11.20
2023-05-24T02:11:25.774Z,11.90
2023-05-24T02:14:14.044Z,12.70
2023-05-24T02:17:02.196Z,12.20
2023-05-24T02:19:50.154Z,10.90
2023-05-24T02:22:39.026Z,11.10
2023-05-24T02:25:26.974Z,14.40
2023-05-24T02:28:15.540Z,15.00
2023-05-24T02:31:03.733Z,8.40
2023-05-24T02:33:51.442Z,8.90
2023-05-24T02:36:39.376Z,10.40
2023-05-24T02:39:27.604Z,8.60
2023-05-24T02:42:15.897Z,9.70
2023-05-24T02:45:04.268Z,9.20
2023-05-24T02:47:52.293Z,9.40
2023-05-24T02:50:40.561Z,11.70
2023-05-24T02:53:32.142Z,12.40
2023-05-24T02:56:21.472Z,11.30
2023-05-24T02:59:09.319Z,11.10
2023-05-24T03:01:57.050Z,10.60
2023-05-24T03:04:46.189Z,13.40
2023-05-24T03:07:35.286Z,14.60
2023-05-24T03:10:23.372Z,13.70
2023-05-24T03:13:11.431Z,15.10
2023-05-24T03:16:00.298Z,18.40
2023-05-24T03:18:50.675Z,13.50
2023-05-24T03:21:38.864Z,13.60
2023-05-24T03:24:27.022Z,15.80
2023-05-24T03:27:14.820Z,12.70
2023-05-24T03:30:06.153Z,13.90
2023-05-24T03:32:58.190Z,13.30
2023-05-24T03:35:46.440Z,16.40
2023-05-24T03:38:34.593Z,14.80
2023-05-24T03:41:22.582Z,13.90
2023-05-24T03:44:10.313Z,12.50
2023-05-24T03:46:58.011Z,10.90
2023-05-24T03:49:45.969Z,14.60
2023-05-24T03:52:34.896Z,12.00
2023-05-24T03:55:25.127Z,13.40
2023-05-24T03:58:14.198Z,13.40
2023-05-24T04:01:02.069Z,11.50
2023-05-24T04:03:50.771Z,15.80
2023-05-24T04:06:41.411Z,14.10
2023-05-24T04:09:29.653Z,12.80
2023-05-24T04:12:17.855Z,13.00
2023-05-24T04:15:08.654Z,11.90
2023-05-24T04:17:56.651Z,14.50
2023-05-24T04:20:44.744Z,11.10
2023-05-24T04:23:34.455Z,12.70
2023-05-24T04:26:22.431Z,12.20
2023-05-24T04:29:11.532Z,14.20
2023-05-24T04:33:03.958Z,16.10
2023-05-24T04:35:53.640Z,10.60
2023-05-24T04:38:42.130Z,14.00
2023-05-24T04:41:36.281Z,10.10
2023-05-24T04:44:24.875Z,12.90
2023-05-24T04:47:14.122Z,12.00
2023-05-24T04:50:02.750Z,11.60
2023-05-24T04:52:51.671Z,16.90
2023-05-24T04:55:41.706Z,14.50
2023-05-24T04:58:30.211Z,12.30
2023-05-24T05:01:19.261Z,12.10
2023-05-24T05:04:08.092Z,11.10
2023-05-24T05:06:57.562Z,14.70
2023-05-24T05:09:46.420Z,12.80
2023-05-24T05:12:34.983Z,10.10
2023-05-24T05:15:23.891Z,10.60
2023-05-24T05:18:12.558Z,14.40
2023-05-24T05:21:01.592Z,11.60
2023-05-24T05:23:50.211Z,9.00
2023-05-24T05:26:39.198Z,10.60
2023-05-24T05:29:27.823Z,10.70
2023-05-24T05:32:16.594Z,8.20
2023-05-24T05:35:05.769Z,9.80
2023-05-24T05:37:54.453Z,12.80
2023-05-24T05:40:43.221Z,9.90
2023-05-24T05:43:31.987Z,10.40
2023-05-24T05:46:22.463Z,7.20
2023-05-24T05:49:10.955Z,5.40
2023-05-24T05:51:59.576Z,9.20
2023-05-24T05:54:48.264Z,7.80
2023-05-24T05:57:37.144Z,7.40
2023-05-24T06:00:25.928Z,7.30
2023-05-24T06:03:14.641Z,6.30
2023-05-24T06:06:03.386Z,7.60
2023-05-24T06:08:51.968Z,6.20
2023-05-24T06:11:44.994Z,6.60
2023-05-24T06:14:34.680Z,6.90
2023-05-24T06:17:24.646Z,7.90
2023-05-24T06:20:16.090Z,9.90
2023-05-24T06:23:05.386Z,6.40
2023-05-24T06:25:54.152Z,10.30
2023-05-24T06:28:42.873Z,9.50
2023-05-24T06:31:31.471Z,7.20
2023-05-24T06:34:23.614Z,5.70
2023-05-24T06:37:15.527Z,7.30
2023-05-24T06:40:07.124Z,5.50
2023-05-24T06:42:55.262Z,8.00
2023-05-24T06:45:43.879Z,6.20
2023-05-24T06:48:32.408Z,5.10
2023-05-24T06:51:21.297Z,7.90
2023-05-24T06:54:09.980Z,8.00
2023-05-24T06:56:59.208Z,5.30
2023-05-24T06:59:48.061Z,3.60
2023-05-24T07:02:36.722Z,3.70
2023-05-24T07:05:25.319Z,6.40
2023-05-24T07:08:14.127Z,7.00
2023-05-24T07:11:03.469Z,5.60
2023-05-24T07:13:52.090Z,5.90
2023-05-24T07:16:40.705Z,10.40
2023-05-24T07:19:29.959Z,5.70
2023-05-24T07:22:18.646Z,5.70
2023-05-24T07:25:07.655Z,6.70
2023-05-24T07:27:56.155Z,3.30
2023-05-24T07:30:45.643Z,8.90
2023-05-24T07:33:35.093Z,7.40
2023-05-24T07:36:26.136Z,6.20
2023-05-24T07:39:16.216Z,5.30
2023-05-24T07:42:04.751Z,8.30
2023-05-24T07:44:53.245Z,4.80
2023-05-24T07:47:41.998Z,4.80
2023-05-24T07:50:30.564Z,5.00
2023-05-24T07:53:19.863Z,4.80
2023-05-24T07:56:08.468Z,4.60
2023-05-24T07:59:03.581Z,4.90
2023-05-24T08:01:52.732Z,5.00
2023-05-24T08:04:41.496Z,5.10
2023-05-24T08:07:30.259Z,7.50
2023-05-24T08:10:19.072Z,5.80
2023-05-24T08:13:07.806Z,4.40
2023-05-24T08:15:56.755Z,4.10
2023-05-24T08:18:45.331Z,4.50
2023-05-24T08:21:34.143Z,7.40
2023-05-24T08:24:22.896Z,5.40
2023-05-24T08:27:12.085Z,4.40
2023-05-24T08:30:00.584Z,8.20
2023-05-24T08:32:52.544Z,5.30
2023-05-24T08:35:40.889Z,5.30
2023-05-24T08:38:29.698Z,5.00
2023-05-24T08:41:18.260Z,7.80
2023-05-24T08:44:09.676Z,3.90
2023-05-24T08:46:58.196Z,5.00
2023-05-24T08:49:46.805Z,4.00
2023-05-24T08:52:35.765Z,5.30
2023-05-24T08:55:24.500Z,18.00
2023-05-24T08:58:13.170Z,7.40
2023-05-24T09:01:02.482Z,5.30
2023-05-24T09:03:51.635Z,5.60
2023-05-24T09:06:40.299Z,3.80
2023-05-24T09:09:29.425Z,4.20
2023-05-24T09:12:35.377Z,8.10
2023-05-24T09:15:26.227Z,5.00
2023-05-24T09:18:14.599Z,6.10
2023-05-24T09:21:03.088Z,5.80
2023-05-24T09:23:51.682Z,4.10
2023-05-24T09:26:40.323Z,8.20
2023-05-24T09:29:29.075Z,7.00
2023-05-24T09:32:18.444Z,6.10
2023-05-24T09:35:10.970Z,3.30
2023-05-24T09:38:02.304Z,3.90
2023-05-24T09:40:59.644Z,4.20
2023-05-24T09:43:49.949Z,6.00
2023-05-24T09:46:38.868Z,8.20
2023-05-24T09:49:27.554Z,4.90
2023-05-24T09:52:16.712Z,5.80
2023-05-24T09:55:15.440Z,2.80
2023-05-24T09:58:08.649Z,3.90
2023-05-24T10:01:05.258Z,3.10
2023-05-24T10:03:58.458Z,6.40
2023-05-24T10:06:48.754Z,5.00
2023-05-24T10:09:37.440Z,3.40
2023-05-24T10:12:25.966Z,3.50
2023-05-24T10:15:14.672Z,4.40
2023-05-24T10:18:10.680Z,5.60
2023-05-24T10:21:01.915Z,4.90
2023-05-24T10:23:52.186Z,8.50
2023-05-24T10:26:40.944Z,4.20
2023-05-24T10:29:46.054Z,4.60
2023-05-24T10:32:34.972Z,3.00
2023-05-24T10:35:23.619Z,4.70
2023-05-24T10:38:12.201Z,3.30
2023-05-24T10:41:00.920Z,8.20
2023-05-24T10:44:07.311Z,5.50
2023-05-24T10:47:10.664Z,9.80
2023-05-24T10:50:06.829Z,3.70
2023-05-24T10:53:23.416Z,4.80
2023-05-24T10:56:13.929Z,3.80
2023-05-24T10:59:06.360Z,5.60
2023-05-24T11:01:58.793Z,4.40
2023-05-24T11:04:47.878Z,2.60
2023-05-24T11:07:43.084Z,5.10
2023-05-24T11:10:31.777Z,3.90
2023-05-24T11:13:21.184Z,4.40
2023-05-24T11:16:09.826Z,3.60
2023-05-24T11:18:58.437Z,3.80
2023-05-24T11:21:48.285Z,4.90
2023-05-24T11:24:37.697Z,4.00
2023-05-24T11:27:26.292Z,3.40
2023-05-24T11:30:15.936Z,3.20
2023-05-24T11:33:04.517Z,6.70
2023-05-24T11:35:54.703Z,5.30
2023-05-24T11:38:42.950Z,3.60
2023-05-24T11:41:31.610Z,4.70
2023-05-24T11:44:20.250Z,2.80
2023-05-24T11:47:09.016Z,2.30
2023-05-24T11:49:57.620Z,4.30
2023-05-24T11:52:46.309Z,3.60
2023-05-24T11:55:35.215Z,4.20
2023-05-24T11:58:25.209Z,4.60
2023-05-24T12:01:27.692Z,4.50
2023-05-24T12:04:16.552Z,2.30
2023-05-24T12:07:05.896Z,3.10
2023-05-24T12:09:54.496Z,4.10
2023-05-24T12:12:47.144Z,4.00
2023-05-24T12:15:35.874Z,2.40
2023-05-24T12:18:26.617Z,5.10
2023-05-24T12:21:14.972Z,7.30
2023-05-24T12:24:23.309Z,4.30
2023-05-24T12:27:12.030Z,4.60
2023-05-24T12:30:07.114Z,4.30
2023-05-24T12:32:55.868Z,2.80
2023-05-24T12:35:44.455Z,2.80
2023-05-24T12:38:33.192Z,2.90
2023-05-24T12:41:21.865Z,2.00
2023-05-24T12:44:11.893Z,3.60
2023-05-24T12:47:01.672Z,4.60
2023-05-24T12:49:50.919Z,2.80
2023-05-24T12:52:39.474Z,5.60
2023-05-24T12:55:28.397Z,2.40
2023-05-24T12:58:17.579Z,1.30
2023-05-24T13:01:06.243Z,2.50
2023-05-24T13:03:54.769Z,6.10
2023-05-24T13:06:43.844Z,2.00
2023-05-24T13:16:24.420Z,4.90
2023-05-24T13:19:13.055Z,2.80
2023-05-24T13:22:01.747Z,5.00
2023-05-24T13:24:50.318Z,4.50
2023-05-24T13:27:38.882Z,2.10
2023-05-24T13:30:28.466Z,3.50
2023-05-24T13:33:17.039Z,1.60
2023-05-24T13:36:05.821Z,1.60
2023-05-24T13:39:12.854Z,3.30
2023-05-24T13:42:03.203Z,2.60
2023-05-24T13:44:51.928Z,2.50
2023-05-24T13:47:41.507Z,3.80
2023-05-24T13:50:32.237Z,2.60
2023-05-24T13:53:22.458Z,2.00
2023-05-24T13:56:11.127Z,2.10
2023-05-24T13:59:03.742Z,3.40
2023-05-24T14:01:52.039Z,8.20
2023-05-24T14:04:40.968Z,15.20
2023-05-24T14:07:29.740Z,5.10
2023-05-24T14:10:20.915Z,1.80
2023-05-24T14:16:01.782Z,3.40
2023-05-24T14:18:51.858Z,5.30
2023-05-24T14:21:41.556Z,1.90
2023-05-24T14:24:30.182Z,4.10
2023-05-24T14:27:18.757Z,3.30
2023-05-24T14:30:08.359Z,6.70
2023-05-24T14:32:56.975Z,4.90
2023-05-24T14:35:46.609Z,6.10
2023-05-24T14:38:35.650Z,3.60
2023-05-24T14:41:24.204Z,3.70
2023-05-24T14:44:12.860Z,4.80
2023-05-24T14:47:01.550Z,6.30
2023-05-24T14:49:50.408Z,5.30
2023-05-24T14:52:39.266Z,4.40
2023-05-24T14:55:28.053Z,2.90
2023-05-24T14:58:16.929Z,4.30
2023-05-24T15:01:06.996Z,4.20
2023-05-24T15:03:55.667Z,3.40
2023-05-24T15:06:44.248Z,3.70
2023-05-24T15:09:32.837Z,4.30
2023-05-24T15:12:22.513Z,5.90
2023-05-24T15:15:11.411Z,4.10
2023-05-24T15:18:00.243Z,3.70
2023-05-24T15:20:49.292Z,5.40
2023-05-24T15:23:38.064Z,4.00
2023-05-24T15:26:27.288Z,3.30
2023-05-24T15:29:16.949Z,4.00
2023-05-24T15:32:05.357Z,3.70
2023-05-24T15:34:53.977Z,2.70
2023-05-24T15:37:42.811Z,5.50
2023-05-24T15:40:31.447Z,2.50
2023-05-24T15:43:20.221Z,4.50
2023-05-24T15:46:08.835Z,3.80
2023-05-24T15:48:57.483Z,3.30
2023-05-24T15:52:03.687Z,2.60
2023-05-24T15:54:53.513Z,2.90
2023-05-24T15:57:42.303Z,2.90
2023-05-24T16:00:30.912Z,4.10
2023-05-24T16:03:20.292Z,3.40
2023-05-24T16:06:08.605Z,3.60
2023-05-24T16:08:57.287Z,4.20
2023-05-24T16:11:47.597Z,4.10
2023-05-24T16:14:36.782Z,6.30
2023-05-24T16:17:25.010Z,5.10
2023-05-24T16:20:13.757Z,4.20
2023-05-24T16:23:03.805Z,8.90
2023-05-24T16:25:52.638Z,4.30
2023-05-24T16:28:41.254Z,4.60
2023-05-24T16:31:31.070Z,6.00
2023-05-24T16:34:19.652Z,10.70
2023-05-24T16:37:08.645Z,6.30
2023-05-24T16:39:57.373Z,4.80
2023-05-24T16:42:46.666Z,4.00
2023-05-24T16:45:35.250Z,4.10
2023-05-24T16:48:28.713Z,4.40
2023-05-24T16:51:17.798Z,17.30
2023-05-24T16:54:08.607Z,14.60
2023-05-24T16:56:57.618Z,8.40
2023-05-24T16:59:47.357Z,5.70
2023-05-24T17:02:37.376Z,4.40
2023-05-24T17:05:26.095Z,7.30
2023-05-24T17:08:14.580Z,8.50
2023-05-24T17:11:04.143Z,7.00
2023-05-24T17:13:52.464Z,8.30
2023-05-24T17:16:41.161Z,4.90
2023-05-24T17:19:29.843Z,8.80
2023-05-24T17:22:18.488Z,9.10
2023-05-24T17:25:07.868Z,6.40
2023-05-24T17:27:56.496Z,5.20
2023-05-24T17:30:45.278Z,7.70
2023-05-24T17:33:33.880Z,7.10
2023-05-24T17:36:22.361Z,8.70
2023-05-24T17:39:11.329Z,8.80
2023-05-24T17:42:00.238Z,11.80
2023-05-24T17:44:49.087Z,11.90
2023-05-24T17:47:37.651Z,12.90
2023-05-24T17:50:26.591Z,14.40
2023-05-24T17:53:30.380Z,10.30
2023-05-24T17:56:22.547Z,10.50
2023-05-24T17:59:11.341Z,10.60
2023-05-24T18:01:59.998Z,8.90
2023-05-24T18:04:48.690Z,9.40
2023-05-24T18:07:37.452Z,11.00
2023-05-24T18:10:26.644Z,13.50
2023-05-24T18:13:15.188Z,20.10
2023-05-24T18:16:03.679Z,17.80
2023-05-24T18:18:52.569Z,20.80
2023-05-24T18:21:41.180Z,18.80
2023-05-24T18:24:29.903Z,15.40
2023-05-24T18:27:18.514Z,12.40
2023-05-24T18:30:08.122Z,12.30
2023-05-24T18:33:06.898Z,13.00
2023-05-24T18:35:56.727Z,13.60
2023-05-24T18:38:47.479Z,8.00
2023-05-24T18:41:36.028Z,8.20
2023-05-24T18:44:24.752Z,8.10
2023-05-24T18:47:13.470Z,6.80
2023-05-24T18:50:02.013Z,9.40
2023-05-24T18:52:50.699Z,7.80
2023-05-24T18:55:39.245Z,7.70
2023-05-24T18:58:31.109Z,6.00
2023-05-24T19:01:19.695Z,9.00
2023-05-24T19:04:08.550Z,10.40
2023-05-24T19:06:57.113Z,9.60
2023-05-24T19:09:45.789Z,8.20
2023-05-24T19:12:34.513Z,8.10
2023-05-24T19:15:25.036Z,6.80
2023-05-24T19:18:13.554Z,7.30
2023-05-24T19:21:02.235Z,10.10
2023-05-24T19:23:51.335Z,8.70
2023-05-24T19:26:39.962Z,8.20
2023-05-24T19:29:28.652Z,10.10
2023-05-24T19:32:17.565Z,7.80
2023-05-24T19:35:07.060Z,7.60
2023-05-24T19:37:55.750Z,11.20
2023-05-24T19:40:44.446Z,10.10
2023-05-24T19:43:33.029Z,12.30
2023-05-24T19:46:23.145Z,8.60
2023-05-24T19:49:12.557Z,11.00
2023-05-24T19:52:01.216Z,11.30
2023-05-24T19:54:49.869Z,8.30
2023-05-24T19:57:38.423Z,9.20
2023-05-24T20:00:27.281Z,9.10
2023-05-24T20:03:15.952Z,8.40
2023-05-24T20:06:04.719Z,8.90
2023-05-24T20:08:56.788Z,10.20
2023-05-24T20:11:49.203Z,9.70
2023-05-24T20:14:37.957Z,8.30
2023-05-24T20:17:26.680Z,7.80
2023-05-24T20:20:15.433Z,11.10
2023-05-24T20:23:04.052Z,8.40
2023-05-24T20:25:52.569Z,6.90
2023-05-24T20:28:41.155Z,10.10
2023-05-24T20:31:29.953Z,7.70
2023-05-24T20:34:18.672Z,8.20
2023-05-24T20:37:07.230Z,8.80
2023-05-24T20:39:55.964Z,9.30
2023-05-24T20:42:44.480Z,10.00
2023-05-24T20:45:33.439Z,9.10
2023-05-24T20:48:23.436Z,8.90
2023-05-24T20:51:12.233Z,9.50
2023-05-24T20:54:00.799Z,8.20
2023-05-24T20:56:49.379Z,8.20
2023-05-24T20:59:37.978Z,9.90
2023-05-24T21:02:28.675Z,9.70
2023-05-24T21:05:16.998Z,13.80
2023-05-24T21:08:05.916Z,8.60
2023-05-24T21:10:56.818Z,10.20
2023-05-24T21:13:46.061Z,11.80
2023-05-24T21:16:34.773Z,8.90
2023-05-24T21:19:23.361Z,8.60
2023-05-24T21:22:11.899Z,9.00
2023-05-24T21:25:00.638Z,10.70
2023-05-24T21:27:49.805Z,8.70
2023-05-24T21:30:38.425Z,8.50
2023-05-24T21:33:27.029Z,10.30
2023-05-24T21:36:15.757Z,11.40
2023-05-24T21:39:08.279Z,8.80
2023-05-24T21:44:45.439Z,9.40
2023-05-24T21:47:35.771Z,11.30
2023-05-24T21:50:24.475Z,11.90
2023-05-24T21:53:13.286Z,11.10
2023-05-24T21:56:02.820Z,11.00
2023-05-24T21:58:51.440Z,12.00
2023-05-24T22:01:40.016Z,11.00
2023-05-24T22:04:28.788Z,9.80
2023-05-24T22:07:17.221Z,11.00
2023-05-24T22:10:06.566Z,9.70
2023-05-24T22:12:55.050Z,8.90
2023-05-24T22:15:44.007Z,11.90
2023-05-24T22:18:32.767Z,11.00
2023-05-24T22:21:22.920Z,9.30
2023-05-24T22:24:12.733Z,12.00
2023-05-24T22:27:02.661Z,11.20
2023-05-24T22:29:51.384Z,10.20
2023-05-24T22:32:40.183Z,10.30
2023-05-24T22:35:29.200Z,11.90
2023-05-24T22:38:17.827Z,10.10
2023-05-24T22:41:06.625Z,10.70
2023-05-24T22:43:55.953Z,10.60
2023-05-24T22:46:44.654Z,12.20
2023-05-24T22:49:34.370Z,7.90
2023-05-24T22:52:24.895Z,8.70
2023-05-24T22:55:13.838Z,9.40
2023-05-24T22:58:02.426Z,11.10
2023-05-24T23:00:51.601Z,12.10
2023-05-24T23:03:40.282Z,9.00
2023-05-24T23:06:31.764Z,8.20
2023-05-24T23:09:29.258Z,11.10
2023-05-24T23:12:18.749Z,9.60
2023-05-24T23:15:08.882Z,7.50
2023-05-24T23:17:58.425Z,8.90
2023-05-24T23:20:47.208Z,10.60
2023-05-24T23:23:37.856Z,9.30
2023-05-24T23:26:26.951Z,10.60
2023-05-24T23:29:15.808Z,11.10
2023-05-24T23:32:05.225Z,9.40
2023-05-24T23:34:53.825Z,10.10
2023-05-24T23:37:42.472Z,10.40
2023-05-24T23:40:31.159Z,10.00
2023-05-24T23:43:19.720Z,10.50
2023-05-24T23:46:08.393Z,7.80
2023-05-24T23:48:56.957Z,9.00
2023-05-24T23:51:45.589Z,9.00
2023-05-24T23:54:34.194Z,10.20
2023-05-24T23:57:25.139Z,11.70
